createdAt,value
2018-06-22T00:02:11.667Z,1.40
2018-06-22T00:04:40.119Z,2.43
2018-06-22T00:07:08.542Z,2.13
2018-06-22T00:09:36.974Z,2.03
2018-06-22T00:12:05.419Z,1.70
2018-06-22T00:14:33.882Z,2.17
2018-06-22T00:17:02.321Z,1.77
2018-06-22T00:19:30.745Z,1.80
2018-06-22T00:21:58.900Z,1.33
2018-06-22T00:24:27.332Z,1.60
2018-06-22T00:26:55.795Z,1.90
2018-06-22T00:29:24.257Z,2.00
2018-06-22T00:31:52.677Z,2.20
2018-06-22T00:34:21.114Z,2.13
2018-06-22T00:36:49.531Z,1.53
2018-06-22T00:39:17.945Z,2.33
2018-06-22T00:41:46.361Z,1.70
2018-06-22T00:44:14.765Z,2.00
2018-06-22T00:46:43.178Z,1.90
2018-06-22T00:49:11.594Z,1.63
2018-06-22T00:51:39.732Z,2.30
2018-06-22T00:54:13.904Z,1.93
2018-06-22T00:56:42.330Z,2.17
2018-06-22T00:59:11.354Z,1.83
2018-06-22T01:01:39.826Z,2.50
2018-06-22T01:04:08.772Z,2.10
2018-06-22T01:06:37.302Z,1.90
2018-06-22T01:09:07.364Z,2.13
2018-06-22T01:11:35.849Z,2.00
2018-06-22T01:14:04.547Z,1.73
2018-06-22T01:16:33.035Z,2.13
2018-06-22T01:19:01.495Z,1.70
2018-06-22T01:21:29.994Z,2.03
2018-06-22T01:23:58.454Z,1.90
2018-06-22T01:26:26.954Z,1.87
2018-06-22T01:29:00.767Z,2.00
2018-06-22T01:31:29.269Z,1.83
2018-06-22T01:33:57.943Z,1.67
2018-06-22T01:36:26.617Z,2.47
2018-06-22T01:38:55.086Z,2.40
2018-06-22T01:41:23.844Z,1.87
2018-06-22T01:43:52.310Z,2.07
2018-06-22T01:46:20.822Z,2.20
2018-06-22T01:48:49.469Z,2.43
2018-06-22T01:51:17.994Z,2.40
2018-06-22T01:53:46.616Z,2.30
2018-06-22T01:56:15.087Z,2.40
2018-06-22T01:58:43.545Z,2.73
2018-06-22T02:01:12.042Z,2.77
2018-06-22T02:03:40.506Z,2.37
2018-06-22T02:06:08.986Z,3.10
2018-06-22T02:08:37.430Z,2.50
2018-06-22T02:11:05.973Z,2.40
2018-06-22T02:13:34.435Z,2.73
2018-06-22T02:16:03.114Z,2.60
2018-06-22T02:18:31.597Z,2.73
2018-06-22T02:21:00.158Z,2.57
2018-06-22T02:23:28.622Z,2.70
2018-06-22T02:25:57.121Z,2.77
2018-06-22T02:28:25.653Z,2.50
2018-06-22T02:30:54.109Z,2.20
2018-06-22T02:33:22.588Z,2.60
2018-06-22T02:35:51.062Z,3.00
2018-06-22T02:38:19.555Z,2.23
2018-06-22T02:40:48.050Z,2.43
2018-06-22T02:43:16.533Z,2.70
2018-06-22T02:45:44.990Z,1.90
2018-06-22T02:48:13.474Z,2.50
2018-06-22T02:50:41.979Z,2.90
2018-06-22T02:53:10.230Z,2.27
2018-06-22T02:55:38.713Z,2.60
2018-06-22T02:58:07.194Z,2.47
2018-06-22T03:00:35.677Z,2.80
2018-06-22T03:03:04.166Z,2.53
2018-06-22T03:05:32.626Z,2.57
2018-06-22T03:08:01.095Z,2.50
2018-06-22T03:10:29.564Z,3.17
2018-06-22T03:12:58.044Z,2.90
2018-06-22T03:15:26.469Z,2.10
2018-06-22T03:17:54.973Z,2.33
2018-06-22T03:20:23.365Z,2.40
2018-06-22T03:22:51.770Z,2.67
2018-06-22T03:25:20.169Z,2.80
2018-06-22T03:27:48.619Z,2.87
2018-06-22T03:30:17.035Z,2.53
2018-06-22T03:32:45.449Z,2.60
2018-06-22T03:35:13.547Z,1.93
2018-06-22T03:37:41.951Z,2.33
2018-06-22T03:40:10.350Z,2.87
2018-06-22T03:42:38.794Z,2.70
2018-06-22T03:45:07.214Z,3.23
2018-06-22T03:47:35.661Z,3.03
2018-06-22T03:50:04.141Z,2.93
2018-06-22T03:52:32.585Z,3.10
2018-06-22T03:55:00.988Z,3.30
2018-06-22T03:57:29.446Z,2.60
2018-06-22T03:59:57.849Z,2.57
2018-06-22T04:02:26.275Z,3.27
2018-06-22T04:04:54.683Z,3.00
2018-06-22T04:07:23.103Z,3.10
2018-06-22T04:09:51.514Z,3.50
2018-06-22T04:12:19.645Z,3.77
2018-06-22T04:14:48.054Z,4.70
2018-06-22T04:17:16.486Z,4.23
2018-06-22T04:19:44.929Z,3.90
2018-06-22T04:22:13.394Z,3.60
2018-06-22T04:24:41.828Z,2.63
2018-06-22T04:27:10.334Z,3.33
2018-06-22T04:29:38.790Z,3.60
2018-06-22T04:32:07.218Z,2.40
2018-06-22T04:34:35.650Z,3.30
2018-06-22T04:37:04.058Z,2.77
2018-06-22T04:39:32.502Z,3.27
2018-06-22T04:42:00.950Z,3.00
2018-06-22T04:44:29.394Z,3.40
2018-06-22T04:46:57.803Z,3.80
2018-06-22T04:49:26.249Z,3.03
2018-06-22T04:51:54.930Z,3.10
2018-06-22T04:54:23.380Z,3.67
2018-06-22T04:56:51.788Z,4.60
2018-06-22T04:59:20.236Z,2.63
2018-06-22T05:01:48.662Z,2.50
2018-06-22T05:04:17.119Z,3.20
2018-06-22T05:06:45.548Z,2.70
2018-06-22T05:09:14.022Z,2.73
2018-06-22T05:11:42.416Z,2.30
2018-06-22T05:14:10.849Z,2.70
2018-06-22T05:16:39.258Z,2.83
2018-06-22T05:19:07.401Z,2.97
2018-06-22T05:21:35.793Z,2.90
2018-06-22T05:24:04.244Z,2.73
2018-06-22T05:26:32.752Z,2.67
2018-06-22T05:29:01.177Z,2.20
2018-06-22T05:31:29.650Z,2.93
2018-06-22T05:33:58.101Z,2.80
2018-06-22T05:36:26.491Z,2.37
2018-06-22T05:38:54.958Z,2.77
2018-06-22T05:41:23.397Z,3.00
2018-06-22T05:43:52.167Z,2.70
2018-06-22T05:46:20.593Z,2.73
2018-06-22T05:48:49.074Z,2.60
2018-06-22T05:51:17.492Z,2.10
2018-06-22T05:53:45.934Z,2.00
2018-06-22T05:56:14.349Z,2.40
2018-06-22T05:58:42.795Z,2.97
2018-06-22T06:01:11.221Z,3.67
2018-06-22T06:03:39.777Z,3.33
2018-06-22T06:06:08.107Z,2.00
2018-06-22T06:08:36.546Z,2.67
2018-06-22T06:11:05.048Z,1.70
2018-06-22T06:13:33.173Z,2.63
2018-06-22T06:16:01.674Z,2.27
2018-06-22T06:18:30.133Z,2.23
2018-06-22T06:20:58.555Z,2.30
2018-06-22T06:23:27.005Z,1.63
2018-06-22T06:25:55.430Z,2.10
2018-06-22T06:28:23.866Z,2.03
2018-06-22T06:30:52.314Z,2.10
2018-06-22T06:33:20.727Z,2.23
2018-06-22T06:35:49.195Z,2.33
2018-06-22T06:38:17.298Z,1.93
2018-06-22T06:40:45.722Z,1.83
2018-06-22T06:43:14.127Z,1.87
2018-06-22T06:45:42.585Z,2.43
2018-06-22T06:48:10.994Z,1.70
2018-06-22T06:50:39.418Z,1.80
2018-06-22T06:53:07.846Z,1.50
2018-06-22T06:55:36.007Z,1.83
2018-06-22T06:58:04.501Z,1.80
2018-06-22T07:00:32.950Z,1.90
2018-06-22T07:03:01.481Z,1.60
2018-06-22T07:05:29.914Z,1.70
2018-06-22T07:07:58.357Z,1.80
2018-06-22T07:10:26.775Z,1.27
2018-06-22T07:12:55.234Z,1.13
2018-06-22T07:15:23.677Z,1.30
2018-06-22T07:17:52.107Z,1.67
2018-06-22T07:20:20.541Z,1.17
2018-06-22T07:22:48.995Z,1.10
2018-06-22T07:25:17.138Z,1.10
2018-06-22T07:27:45.608Z,1.40
2018-06-22T07:30:14.053Z,1.20
2018-06-22T07:32:42.465Z,1.63
2018-06-22T07:35:10.914Z,1.30
2018-06-22T07:37:39.326Z,1.40
2018-06-22T07:40:07.781Z,1.30
2018-06-22T07:42:36.189Z,1.77
2018-06-22T07:45:04.842Z,1.70
2018-06-22T07:47:33.249Z,1.03
2018-06-22T07:50:01.702Z,3.53
2018-06-22T07:52:30.130Z,1.00
2018-06-22T07:54:58.562Z,1.23
2018-06-22T07:57:26.990Z,1.27
2018-06-22T07:59:55.425Z,1.27
2018-06-22T08:02:23.860Z,1.10
2018-06-22T08:04:51.965Z,1.20
2018-06-22T08:07:20.414Z,1.30
2018-06-22T08:09:48.724Z,1.47
2018-06-22T08:12:17.162Z,1.13
2018-06-22T08:14:45.281Z,1.37
2018-06-22T08:17:13.750Z,1.30
2018-06-22T08:19:42.186Z,1.07
2018-06-22T08:22:10.609Z,1.17
2018-06-22T08:24:39.064Z,1.27
2018-06-22T08:27:07.501Z,1.50
2018-06-22T08:29:35.905Z,1.13
2018-06-22T08:32:04.418Z,0.90
2018-06-22T08:34:32.801Z,1.10
2018-06-22T08:37:01.241Z,1.40
2018-06-22T08:39:29.659Z,0.90
2018-06-22T08:41:58.170Z,1.20
2018-06-22T08:44:26.478Z,1.50
2018-06-22T08:46:54.924Z,1.00
2018-06-22T08:49:23.357Z,1.57
2018-06-22T08:51:51.788Z,1.27
2018-06-22T08:54:20.222Z,1.03
2018-06-22T08:56:48.685Z,1.10
2018-06-22T08:59:16.804Z,1.27
2018-06-22T09:01:45.258Z,1.63
2018-06-22T09:04:13.698Z,1.10
2018-06-22T09:06:42.162Z,1.10
2018-06-22T09:09:10.601Z,1.20
2018-06-22T09:11:39.061Z,1.30
2018-06-22T09:14:07.488Z,1.27
2018-06-22T09:16:35.942Z,1.50
2018-06-22T09:19:04.374Z,1.07
2018-06-22T09:21:32.805Z,1.10
2018-06-22T09:24:01.257Z,0.73
2018-06-22T09:26:29.895Z,0.90
2018-06-22T09:28:58.442Z,1.00
2018-06-22T09:31:27.235Z,1.00
2018-06-22T09:33:55.689Z,0.93
2018-06-22T09:36:23.829Z,1.00
2018-06-22T09:38:52.269Z,1.53
2018-06-22T09:41:20.738Z,1.10
2018-06-22T09:43:49.206Z,1.10
2018-06-22T09:46:17.337Z,1.20
2018-06-22T09:48:46.150Z,0.83
2018-06-22T09:51:14.614Z,1.07
2018-06-22T09:53:43.037Z,0.80
2018-06-22T09:56:11.515Z,0.90
2018-06-22T09:58:39.947Z,1.30
2018-06-22T10:01:08.402Z,1.00
2018-06-22T10:03:36.795Z,1.17
2018-06-22T10:06:05.330Z,1.50
2018-06-22T10:08:33.767Z,1.00
2018-06-22T10:11:02.193Z,1.10
2018-06-22T10:13:30.627Z,0.70
2018-06-22T10:15:59.082Z,0.80
2018-06-22T10:18:27.486Z,0.93
2018-06-22T10:20:55.938Z,1.20
2018-06-22T10:23:24.346Z,0.80
2018-06-22T10:25:52.775Z,2.33
2018-06-22T10:28:21.197Z,1.00
2018-06-22T10:30:49.628Z,0.93
2018-06-22T10:33:18.045Z,1.20
2018-06-22T10:35:46.485Z,1.00
2018-06-22T10:38:14.926Z,0.83
2018-06-22T10:40:43.382Z,0.90
2018-06-22T10:43:11.839Z,0.87
2018-06-22T10:45:40.298Z,0.90
2018-06-22T10:48:08.424Z,0.83
2018-06-22T10:50:36.889Z,0.90
2018-06-22T10:53:05.421Z,0.90
2018-06-22T10:55:33.885Z,0.73
2018-06-22T10:58:02.381Z,0.97
2018-06-22T11:00:30.981Z,1.30
2018-06-22T11:02:59.445Z,1.00
2018-06-22T11:05:27.926Z,1.43
2018-06-22T11:07:56.381Z,1.00
2018-06-22T11:10:24.818Z,0.70
2018-06-22T11:12:53.278Z,0.90
2018-06-22T11:15:21.739Z,0.87
2018-06-22T11:17:50.181Z,0.93
2018-06-22T11:20:18.641Z,1.00
2018-06-22T11:22:47.101Z,0.90
2018-06-22T11:25:15.529Z,0.80
2018-06-22T11:27:43.989Z,0.97
2018-06-22T11:30:12.421Z,1.10
2018-06-22T11:32:40.558Z,0.93
2018-06-22T11:35:09.081Z,1.00
2018-06-22T11:37:37.205Z,0.87
2018-06-22T11:40:05.701Z,1.10
2018-06-22T11:42:34.137Z,1.20
2018-06-22T11:45:02.770Z,1.23
2018-06-22T11:47:31.241Z,0.87
2018-06-22T11:49:59.675Z,1.20
2018-06-22T11:52:28.154Z,1.00
2018-06-22T11:54:56.592Z,0.83
2018-06-22T11:57:25.045Z,0.80
2018-06-22T11:59:53.492Z,1.00
2018-06-22T12:02:21.976Z,0.80
2018-06-22T12:04:50.441Z,1.00
2018-06-22T12:07:18.897Z,1.00
2018-06-22T12:09:47.310Z,0.87
2018-06-22T12:12:15.761Z,1.00
2018-06-22T12:14:44.210Z,0.90
2018-06-22T12:17:12.655Z,1.10
2018-06-22T12:19:41.076Z,0.70
2018-06-22T12:22:09.546Z,1.00
2018-06-22T12:24:38.002Z,1.10
2018-06-22T12:27:06.474Z,1.00
2018-06-22T12:29:34.916Z,0.87
2018-06-22T12:32:03.333Z,1.10
2018-06-22T12:34:31.826Z,1.03
2018-06-22T12:37:00.254Z,1.10
2018-06-22T12:39:28.744Z,0.90
2018-06-22T12:41:56.861Z,1.10
2018-06-22T12:44:25.291Z,1.10
2018-06-22T12:46:53.699Z,1.03
2018-06-22T12:49:22.145Z,1.37
2018-06-22T12:51:50.610Z,1.00
2018-06-22T12:54:19.040Z,1.40
2018-06-22T12:56:47.469Z,0.90
2018-06-22T12:59:15.915Z,1.00
2018-06-22T13:01:44.325Z,1.50
2018-06-22T13:04:12.770Z,1.07
2018-06-22T13:06:41.213Z,1.17
2018-06-22T13:09:10.860Z,0.97
2018-06-22T13:11:39.298Z,1.40
2018-06-22T13:14:08.198Z,1.30
2018-06-22T13:16:36.654Z,1.17
2018-06-22T13:19:05.323Z,1.03
2018-06-22T13:21:42.641Z,1.10
2018-06-22T13:24:11.065Z,1.00
2018-06-22T13:26:39.485Z,1.03
2018-06-22T13:29:07.925Z,1.73
2018-06-22T13:31:36.445Z,1.43
2018-06-22T13:34:04.922Z,1.17
2018-06-22T13:36:33.362Z,1.10
2018-06-22T13:39:01.830Z,1.23
2018-06-22T13:41:30.289Z,1.40
2018-06-22T13:43:58.742Z,1.07
2018-06-22T13:46:27.192Z,1.00
2018-06-22T13:48:55.633Z,1.40
2018-06-22T13:51:24.081Z,1.50
2018-06-22T13:53:52.533Z,1.00
2018-06-22T13:56:20.941Z,1.20
2018-06-22T13:58:49.394Z,1.53
2018-06-22T14:01:17.810Z,1.27
2018-06-22T14:03:51.302Z,1.23
2018-06-22T14:06:25.033Z,1.30
2018-06-22T14:08:53.475Z,1.60
2018-06-22T14:11:21.926Z,1.50
2018-06-22T14:13:50.435Z,0.80
2018-06-22T14:16:18.858Z,1.00
2018-06-22T14:18:47.277Z,1.00
2018-06-22T14:21:15.727Z,1.20
2018-06-22T14:23:44.152Z,1.07
2018-06-22T14:26:12.622Z,1.20
2018-06-22T14:28:41.062Z,1.23
2018-06-22T14:31:09.646Z,1.30
2018-06-22T14:33:38.106Z,1.00
2018-06-22T14:36:07.223Z,1.00
2018-06-22T14:38:35.643Z,1.33
2018-06-22T14:41:04.129Z,1.20
2018-06-22T14:43:32.245Z,1.13
2018-06-22T14:46:00.693Z,1.30
2018-06-22T14:48:29.204Z,1.13
2018-06-22T14:50:57.674Z,1.10
2018-06-22T14:53:31.579Z,1.47
2018-06-22T14:56:05.387Z,1.80
2018-06-22T14:58:39.148Z,1.43
2018-06-22T15:01:12.762Z,1.33
2018-06-22T15:03:46.491Z,1.40
2018-06-22T15:06:20.052Z,1.93
2018-06-22T15:08:48.488Z,1.30
2018-06-22T15:11:17.283Z,1.40
2018-06-22T15:13:47.902Z,1.50
2018-06-22T15:16:16.517Z,2.03
2018-06-22T15:18:45.202Z,1.40
2018-06-22T15:21:13.680Z,1.20
2018-06-22T15:23:42.129Z,1.30
2018-06-22T15:26:10.593Z,1.40
2018-06-22T15:28:38.994Z,1.40
2018-06-22T15:31:07.582Z,1.80
2018-06-22T15:33:41.247Z,1.20
2018-06-22T15:36:15.110Z,1.40
2018-06-22T15:38:48.870Z,1.30
2018-06-22T15:41:22.627Z,1.20
2018-06-22T15:43:56.293Z,1.10
2018-06-22T15:46:30.071Z,1.03
2018-06-22T15:49:03.485Z,1.47
2018-06-22T15:52:39.033Z,1.60
2018-06-22T15:55:12.066Z,1.70
2018-06-22T15:57:40.523Z,1.47
2018-06-22T16:00:10.850Z,1.70
2018-06-22T16:02:44.653Z,1.53
2018-06-22T16:05:13.100Z,1.40
2018-06-22T16:07:41.577Z,1.33
2018-06-22T16:10:09.697Z,1.40
2018-06-22T16:12:39.701Z,1.43
2018-06-22T16:15:14.692Z,1.20
2018-06-22T16:17:48.543Z,1.20
2018-06-22T16:20:22.173Z,1.60
2018-06-22T16:23:54.730Z,1.70
2018-06-22T16:26:28.449Z,1.30
2018-06-22T16:28:56.869Z,1.30
2018-06-22T16:31:25.005Z,1.57
2018-06-22T16:33:55.386Z,1.67
2018-06-22T16:36:24.274Z,1.10
2018-06-22T16:38:52.741Z,1.33
2018-06-22T16:41:21.230Z,1.43
2018-06-22T16:43:49.754Z,1.53
2018-06-22T16:46:18.251Z,1.10
2018-06-22T16:48:46.641Z,1.30
2018-06-22T16:51:15.073Z,1.20
2018-06-22T16:53:43.499Z,1.53
2018-06-22T16:56:11.921Z,1.30
2018-06-22T16:58:41.114Z,1.23
2018-06-22T17:01:10.812Z,1.33
2018-06-22T17:03:39.238Z,1.30
2018-06-22T17:06:09.035Z,1.90
2018-06-22T17:08:42.678Z,1.67
2018-06-22T17:11:16.584Z,1.20
2018-06-22T17:13:50.182Z,1.50
2018-06-22T17:16:23.762Z,1.30
2018-06-22T17:18:53.833Z,1.40
2018-06-22T17:21:22.693Z,1.50
2018-06-22T17:23:51.254Z,1.27
2018-06-22T17:26:19.707Z,1.40
2018-06-22T17:28:48.217Z,1.67
2018-06-22T17:31:16.649Z,1.83
2018-06-22T17:33:45.074Z,1.13
2018-06-22T17:36:13.556Z,1.27
2018-06-22T17:38:42.006Z,1.40
2018-06-22T17:41:10.418Z,1.57
2018-06-22T17:43:38.894Z,1.50
2018-06-22T17:46:07.415Z,1.60
2018-06-22T17:48:35.800Z,1.43
2018-06-22T17:51:04.234Z,1.20
2018-06-22T17:53:32.675Z,1.27
2018-06-22T17:56:01.097Z,1.37
2018-06-22T17:58:29.557Z,1.50
2018-06-22T18:01:03.442Z,1.30
2018-06-22T18:03:37.712Z,1.63
2018-06-22T18:06:11.585Z,1.53
2018-06-22T18:08:45.981Z,1.37
2018-06-22T18:11:19.691Z,2.23
2018-06-22T18:13:48.113Z,1.83
2018-06-22T18:16:16.519Z,1.30
2018-06-22T18:18:44.929Z,1.70
2018-06-22T18:21:13.374Z,1.50
2018-06-22T18:23:41.829Z,1.57
2018-06-22T18:26:10.314Z,2.13
2018-06-22T18:28:38.752Z,1.93
2018-06-22T18:31:07.866Z,2.00
2018-06-22T18:33:36.328Z,1.90
2018-06-22T18:36:04.961Z,1.43
2018-06-22T18:38:33.405Z,1.40
2018-06-22T18:41:01.865Z,1.90
2018-06-22T18:43:35.661Z,1.57
2018-06-22T18:46:04.177Z,2.00
2018-06-22T18:48:32.642Z,1.90
2018-06-22T18:51:01.138Z,1.77
2018-06-22T18:53:35.003Z,1.83
2018-06-22T18:56:08.863Z,1.80
2018-06-22T18:58:42.590Z,1.93
2018-06-22T19:01:16.154Z,1.83
2018-06-22T19:03:46.774Z,1.70
2018-06-22T19:06:15.269Z,1.90
2018-06-22T19:08:43.777Z,2.17
2018-06-22T19:11:12.270Z,2.30
2018-06-22T19:13:40.765Z,1.73
2018-06-22T19:16:09.284Z,2.23
2018-06-22T19:18:37.826Z,2.30
2018-06-22T19:21:06.999Z,2.00
2018-06-22T19:23:35.450Z,1.83
2018-06-22T19:26:03.942Z,1.70
2018-06-22T19:28:32.398Z,1.73
2018-06-22T19:31:00.869Z,2.00
2018-06-22T19:33:29.439Z,1.90
2018-06-22T19:35:57.969Z,2.10
2018-06-22T19:38:26.415Z,1.83
2018-06-22T19:40:54.916Z,2.03
2018-06-22T19:44:29.195Z,2.40
2018-06-22T19:47:03.028Z,2.30
2018-06-22T19:49:36.901Z,2.70
2018-06-22T19:52:10.743Z,2.03
2018-06-22T19:54:39.211Z,2.13
2018-06-22T19:57:07.695Z,2.20
2018-06-22T19:59:36.157Z,2.10
2018-06-22T20:02:05.494Z,8.27
2018-06-22T20:04:33.953Z,4.63
2018-06-22T20:07:02.411Z,3.50
2018-06-22T20:09:30.857Z,2.43
2018-06-22T20:11:59.313Z,2.23
2018-06-22T20:14:27.777Z,2.20
2018-06-22T20:16:56.324Z,2.23
2018-06-22T20:19:24.950Z,3.47
2018-06-22T20:21:53.427Z,7.03
2018-06-22T20:24:27.205Z,3.13
2018-06-22T20:26:55.687Z,8.03
2018-06-22T20:29:24.302Z,3.43
2018-06-22T20:31:53.062Z,3.10
2018-06-22T20:34:26.893Z,2.67
2018-06-22T20:37:00.705Z,2.50
2018-06-22T20:39:34.394Z,8.87
2018-06-22T20:42:08.230Z,43.63
2018-06-22T20:44:42.069Z,31.80
2018-06-22T20:47:15.933Z,13.43
2018-06-22T20:50:49.378Z,2.50
2018-06-22T20:53:17.822Z,3.17
2018-06-22T20:55:46.282Z,2.27
2018-06-22T20:58:14.744Z,2.40
2018-06-22T21:00:43.182Z,2.30
2018-06-22T21:03:11.354Z,2.20
2018-06-22T21:05:39.808Z,2.40
2018-06-22T21:08:08.266Z,2.67
2018-06-22T21:10:36.698Z,1.80
2018-06-22T21:13:05.072Z,2.40
2018-06-22T21:15:33.381Z,2.10
2018-06-22T21:18:01.902Z,2.00
2018-06-22T21:20:30.360Z,2.10
2018-06-22T21:22:58.805Z,2.10
2018-06-22T21:25:27.286Z,1.70
2018-06-22T21:28:01.082Z,2.20
2018-06-22T21:30:34.444Z,2.40
2018-06-22T21:33:08.325Z,2.20
2018-06-22T21:35:42.030Z,2.20
2018-06-22T21:38:15.814Z,2.67
2018-06-22T21:40:44.317Z,2.07
2018-06-22T21:43:12.775Z,1.77
2018-06-22T21:45:41.255Z,2.20
2018-06-22T21:48:09.729Z,2.30
2018-06-22T21:50:38.199Z,2.20
2018-06-22T21:53:06.657Z,2.17
2018-06-22T21:55:35.111Z,2.27
2018-06-22T21:58:03.654Z,1.97
2018-06-22T22:00:33.819Z,2.30
2018-06-22T22:03:02.756Z,2.20
2018-06-22T22:05:31.723Z,2.20
2018-06-22T22:08:00.385Z,2.23
2018-06-22T22:10:34.001Z,2.03
2018-06-22T22:13:02.458Z,2.03
2018-06-22T22:15:30.882Z,2.30
2018-06-22T22:17:59.381Z,2.27
2018-06-22T22:20:27.825Z,2.03
2018-06-22T22:22:56.265Z,2.67
2018-06-22T22:25:24.732Z,2.53
2018-06-22T22:27:53.169Z,2.10
2018-06-22T22:30:21.662Z,2.07
2018-06-22T22:32:50.106Z,2.23
2018-06-22T22:35:18.556Z,2.10
2018-06-22T22:37:47.003Z,2.67
2018-06-22T22:40:15.156Z,2.07
2018-06-22T22:42:43.594Z,3.07
2018-06-22T22:45:12.066Z,2.30
2018-06-22T22:47:40.502Z,2.47
2018-06-22T22:50:08.974Z,2.17
2018-06-22T22:52:37.418Z,2.57
2018-06-22T22:55:05.969Z,2.73
2018-06-22T22:57:34.406Z,2.70
2018-06-22T23:00:02.893Z,2.40
2018-06-22T23:02:31.333Z,2.17
2018-06-22T23:04:59.793Z,2.47
2018-06-22T23:07:28.230Z,3.40
2018-06-22T23:09:56.675Z,2.50
2018-06-22T23:12:25.145Z,2.30
2018-06-22T23:14:53.608Z,2.50
2018-06-22T23:17:22.021Z,2.43
2018-06-22T23:19:50.474Z,3.00
2018-06-22T23:22:24.507Z,2.87
2018-06-22T23:24:52.953Z,2.73
2018-06-22T23:27:21.404Z,3.03
2018-06-22T23:29:49.849Z,3.03
2018-06-22T23:32:18.262Z,2.40
2018-06-22T23:34:46.710Z,2.60
2018-06-22T23:37:15.121Z,2.90
2018-06-22T23:39:43.562Z,2.60
2018-06-22T23:42:11.962Z,2.37
2018-06-22T23:44:40.389Z,2.70
2018-06-22T23:47:08.806Z,2.80
2018-06-22T23:49:37.309Z,2.10
2018-06-22T23:52:05.706Z,2.80
2018-06-22T23:54:34.149Z,2.93
2018-06-22T23:57:02.660Z,2.20
2018-06-22T23:59:31.101Z,2.10
